Aviation Digital Data Service (ADDS)

Output produced by METARs form (0426 UTC 19 January 2017)
found at http://aviationweather.gov/adds/metars/
 
KERI 190256Z 1903/1924 21007KT P6SM OVC007 
     FM191600 24007KT P6SM OVC015 
     FM192200 VRB02KT P6SM SCT250